createdAt,value
2019-06-08T00:01:55.688Z,5.08
2019-06-08T00:04:28.774Z,5.22
2019-06-08T00:07:01.773Z,5.03
2019-06-08T00:09:34.746Z,4.30
2019-06-08T00:12:07.948Z,5.42
2019-06-08T00:14:40.962Z,5.03
2019-06-08T00:17:30.739Z,4.65
2019-06-08T00:19:48.748Z,4.55
2019-06-08T00:22:22.041Z,4.50
2019-06-08T00:24:55.336Z,5.33
2019-06-08T00:27:28.626Z,4.33
2019-06-08T00:30:02.226Z,4.85
2019-06-08T00:32:35.526Z,4.30
2019-06-08T00:35:09.344Z,4.90
2019-06-08T00:37:42.626Z,4.00
2019-06-08T00:40:16.849Z,3.95
2019-06-08T00:42:49.828Z,4.62
2019-06-08T00:45:23.613Z,4.28
2019-06-08T00:47:56.703Z,3.90
2019-06-08T00:50:29.633Z,4.33
2019-06-08T00:53:02.612Z,5.33
2019-06-08T00:55:36.011Z,4.65
2019-06-08T00:58:09.313Z,5.15
2019-06-08T01:00:42.604Z,5.17
2019-06-08T01:03:17.601Z,4.85
2019-06-08T01:05:51.041Z,5.22
2019-06-08T01:08:25.450Z,4.33
2019-06-08T01:10:58.551Z,4.78
2019-06-08T01:13:31.639Z,5.03
2019-06-08T01:16:04.734Z,4.78
2019-06-08T01:18:37.621Z,4.95
2019-06-08T01:21:10.742Z,5.08
2019-06-08T01:23:44.213Z,5.72
2019-06-08T01:26:17.901Z,5.05
2019-06-08T01:28:50.685Z,5.55
2019-06-08T01:31:24.423Z,6.20
2019-06-08T01:33:57.585Z,5.50
2019-06-08T01:36:31.316Z,6.33
2019-06-08T01:39:06.021Z,6.05
2019-06-08T01:41:39.214Z,6.40
2019-06-08T01:44:12.311Z,5.90
2019-06-08T01:46:45.720Z,6.40
2019-06-08T01:49:19.015Z,6.37
2019-06-08T01:51:52.634Z,6.67
2019-06-08T01:54:26.923Z,6.60
2019-06-08T01:57:00.321Z,7.00
2019-06-08T01:59:34.752Z,7.17
2019-06-08T02:02:07.836Z,6.35
2019-06-08T02:04:40.917Z,6.47
2019-06-08T02:07:14.341Z,7.17
2019-06-08T02:09:47.516Z,6.50
2019-06-08T02:12:20.698Z,7.47
2019-06-08T02:14:53.791Z,6.92
2019-06-08T02:17:27.345Z,7.62
2019-06-08T02:20:00.279Z,6.87
2019-06-08T02:22:33.580Z,7.28
2019-06-08T02:25:07.888Z,6.85
2019-06-08T02:27:41.029Z,6.70
2019-06-08T02:30:17.352Z,7.28
2019-06-08T02:32:50.550Z,6.97
2019-06-08T02:35:23.937Z,6.58
2019-06-08T02:37:57.433Z,6.12
2019-06-08T02:40:32.473Z,7.22
2019-06-08T02:43:05.011Z,6.75
2019-06-08T02:45:40.211Z,6.92
2019-06-08T02:48:13.278Z,6.37
2019-06-08T02:50:55.487Z,6.75
2019-06-08T02:53:29.423Z,6.20
2019-06-08T02:56:03.514Z,6.08
2019-06-08T02:58:39.043Z,5.90
2019-06-08T03:01:11.707Z,7.15
2019-06-08T03:03:44.815Z,6.50
2019-06-08T03:06:17.806Z,7.00
2019-06-08T03:08:51.348Z,6.97
2019-06-08T03:11:24.311Z,8.43
2019-06-08T03:13:59.138Z,7.17
2019-06-08T03:16:33.329Z,5.75
2019-06-08T03:19:20.719Z,4.80
2019-06-08T03:21:42.445Z,4.70
2019-06-08T03:24:18.260Z,5.70
2019-06-08T03:26:51.546Z,5.33
2019-06-08T03:29:24.642Z,5.47
2019-06-08T03:31:58.769Z,5.12
2019-06-08T03:34:34.714Z,5.70
2019-06-08T03:37:06.671Z,5.00
2019-06-08T03:39:41.384Z,5.92
2019-06-08T03:42:15.005Z,5.95
2019-06-08T03:44:48.400Z,5.87
2019-06-08T03:47:21.691Z,5.35
2019-06-08T03:49:57.519Z,6.87
2019-06-08T03:52:30.019Z,6.40
2019-06-08T03:55:03.489Z,6.42
2019-06-08T03:57:38.044Z,5.90
2019-06-08T04:00:13.329Z,6.05
2019-06-08T04:02:46.743Z,7.60
2019-06-08T04:05:19.934Z,6.85
2019-06-08T04:07:53.162Z,7.92
2019-06-08T04:10:26.560Z,7.35
2019-06-08T04:12:59.443Z,7.20
2019-06-08T04:15:32.543Z,6.33
2019-06-08T04:18:05.741Z,5.62
2019-06-08T04:20:40.259Z,4.40
2019-06-08T04:23:13.750Z,6.42
2019-06-08T04:25:47.781Z,5.45
2019-06-08T04:28:20.746Z,6.50
2019-06-08T04:30:54.048Z,6.12
2019-06-08T04:33:27.133Z,7.12
2019-06-08T04:36:00.324Z,6.03
2019-06-08T04:38:33.719Z,5.42
2019-06-08T04:41:06.913Z,5.10
2019-06-08T04:43:42.624Z,5.33
2019-06-08T04:46:16.779Z,6.58
2019-06-08T04:48:50.314Z,5.67
2019-06-08T04:51:23.486Z,6.00
2019-06-08T04:53:56.760Z,7.35
2019-06-08T04:56:29.965Z,6.58
2019-06-08T04:59:02.934Z,5.70
2019-06-08T05:01:36.250Z,6.35
2019-06-08T05:04:09.447Z,6.58
2019-06-08T05:06:42.973Z,7.87
2019-06-08T05:09:16.341Z,8.10
2019-06-08T05:11:49.894Z,9.15
2019-06-08T05:14:23.157Z,10.15
2019-06-08T05:16:56.228Z,8.10
2019-06-08T05:19:29.469Z,6.58
2019-06-08T05:22:02.418Z,6.83
2019-06-08T05:24:35.221Z,5.08
2019-06-08T05:27:08.515Z,4.10
2019-06-08T05:29:41.715Z,5.10
2019-06-08T05:32:15.218Z,4.62
2019-06-08T05:34:49.716Z,5.05
2019-06-08T05:37:22.757Z,4.15
2019-06-08T05:39:56.099Z,5.37
2019-06-08T05:42:29.105Z,4.15
2019-06-08T05:45:02.422Z,4.15
2019-06-08T05:47:35.600Z,4.50
2019-06-08T05:50:11.450Z,4.58
2019-06-08T05:52:45.811Z,4.20
2019-06-08T05:55:18.749Z,3.70
2019-06-08T05:57:52.168Z,3.47
2019-06-08T06:00:25.053Z,3.85
2019-06-08T06:02:58.157Z,4.12
2019-06-08T06:05:31.133Z,4.00
2019-06-08T06:08:16.137Z,4.40
2019-06-08T06:10:38.859Z,3.22
2019-06-08T06:13:12.167Z,3.87
2019-06-08T06:15:47.215Z,4.20
2019-06-08T06:18:20.147Z,3.98
2019-06-08T06:21:07.414Z,4.25
2019-06-08T06:23:28.303Z,4.90
2019-06-08T06:26:01.098Z,5.42
2019-06-08T06:28:34.588Z,4.50
2019-06-08T06:31:07.888Z,4.47
2019-06-08T06:33:41.987Z,5.50
2019-06-08T06:36:15.288Z,5.35
2019-06-08T06:38:50.101Z,4.53
2019-06-08T06:41:23.208Z,6.12
2019-06-08T06:43:56.193Z,5.90
2019-06-08T06:46:29.143Z,5.30
2019-06-08T06:49:02.630Z,5.80
2019-06-08T06:51:35.833Z,5.12
2019-06-08T06:54:09.531Z,7.10
2019-06-08T06:56:43.101Z,5.67
2019-06-08T06:59:16.257Z,5.65
2019-06-08T07:01:54.109Z,5.70
2019-06-08T07:04:24.254Z,3.80
2019-06-08T07:06:58.764Z,4.92
2019-06-08T07:09:32.102Z,5.08
2019-06-08T07:12:05.504Z,4.85
2019-06-08T07:14:38.532Z,5.78
2019-06-08T07:17:11.568Z,5.60
2019-06-08T07:19:44.458Z,4.22
2019-06-08T07:22:17.394Z,4.37
2019-06-08T07:24:50.807Z,3.87
2019-06-08T07:27:24.092Z,5.15
2019-06-08T07:29:57.489Z,3.72
2019-06-08T07:32:30.579Z,4.00
2019-06-08T07:35:04.618Z,4.03
2019-06-08T07:37:37.593Z,4.08
2019-06-08T07:40:10.887Z,3.40
2019-06-08T07:42:43.987Z,3.20
2019-06-08T07:45:17.067Z,4.28
2019-06-08T07:47:50.164Z,4.00
2019-06-08T07:50:23.495Z,4.80
2019-06-08T07:52:56.848Z,4.00
2019-06-08T07:55:30.142Z,4.05
2019-06-08T07:58:03.636Z,4.00
2019-06-08T08:00:36.936Z,3.87
2019-06-08T08:03:09.820Z,3.33
2019-06-08T08:05:43.440Z,3.00
2019-06-08T08:08:16.529Z,3.47
2019-06-08T08:10:50.365Z,3.37
2019-06-08T08:13:24.462Z,2.90
2019-06-08T08:15:59.374Z,2.83
2019-06-08T08:18:33.905Z,3.37
2019-06-08T08:21:18.818Z,2.58
2019-06-08T08:23:41.625Z,3.25
2019-06-08T08:26:14.820Z,2.80
2019-06-08T08:28:49.994Z,3.10
2019-06-08T08:31:23.971Z,3.45
2019-06-08T08:34:03.059Z,3.42
2019-06-08T08:36:33.343Z,4.05
2019-06-08T08:39:08.791Z,3.55
2019-06-08T08:41:42.056Z,2.90
2019-06-08T08:44:17.434Z,3.60
2019-06-08T08:46:51.402Z,3.92
2019-06-08T08:49:27.969Z,4.12
2019-06-08T08:52:01.856Z,3.62
2019-06-08T08:54:34.892Z,2.60
2019-06-08T08:57:08.456Z,2.60
2019-06-08T08:59:41.705Z,2.50
2019-06-08T09:02:14.734Z,2.15
2019-06-08T09:04:48.216Z,2.30
2019-06-08T09:07:21.303Z,2.70
2019-06-08T09:09:56.153Z,3.15
2019-06-08T09:12:29.324Z,2.35
2019-06-08T09:15:04.018Z,2.45
2019-06-08T09:17:38.769Z,2.20
2019-06-08T09:20:15.420Z,1.80
2019-06-08T09:22:53.710Z,1.98
2019-06-08T09:25:21.635Z,2.40
2019-06-08T09:27:56.389Z,2.50
2019-06-08T09:30:29.480Z,1.85
2019-06-08T09:33:04.195Z,1.87
2019-06-08T09:35:38.319Z,2.33
2019-06-08T09:38:11.835Z,1.87
2019-06-08T09:40:45.019Z,1.52
2019-06-08T09:43:19.029Z,1.80
2019-06-08T09:45:53.686Z,2.00
2019-06-08T09:48:28.870Z,1.90
2019-06-08T09:51:03.927Z,2.00
2019-06-08T09:53:40.468Z,2.40
2019-06-08T09:56:11.027Z,1.90
2019-06-08T09:58:44.026Z,1.80
2019-06-08T10:01:18.444Z,1.70
2019-06-08T10:03:51.650Z,1.80
2019-06-08T10:06:24.749Z,1.80
2019-06-08T10:08:58.546Z,1.90
2019-06-08T10:11:31.858Z,3.00
2019-06-08T10:14:09.236Z,2.05
2019-06-08T10:16:39.905Z,2.33
2019-06-08T10:19:13.375Z,2.05
2019-06-08T10:21:48.174Z,2.05
2019-06-08T10:24:21.298Z,2.50
2019-06-08T10:26:55.179Z,2.35
2019-06-08T10:29:28.529Z,2.60
2019-06-08T10:32:01.933Z,2.45
2019-06-08T10:34:34.987Z,2.35
2019-06-08T10:37:12.852Z,1.37
2019-06-08T10:39:42.817Z,2.22
2019-06-08T10:42:18.326Z,2.30
2019-06-08T10:44:51.523Z,1.87
2019-06-08T10:47:29.544Z,2.15
2019-06-08T10:50:06.382Z,2.47
2019-06-08T10:52:34.582Z,2.33
2019-06-08T10:55:11.599Z,1.95
2019-06-08T10:57:43.443Z,2.00
2019-06-08T11:00:24.558Z,2.67
2019-06-08T11:03:01.590Z,1.92
2019-06-08T11:05:33.379Z,2.00
2019-06-08T11:08:13.504Z,1.87
2019-06-08T11:10:41.484Z,1.42
2019-06-08T11:13:15.316Z,2.00
2019-06-08T11:15:49.200Z,1.72
2019-06-08T11:18:22.183Z,1.70
2019-06-08T11:20:57.970Z,1.70
2019-06-08T11:23:29.906Z,1.85
2019-06-08T11:26:05.410Z,2.00
2019-06-08T11:28:38.342Z,1.75
2019-06-08T11:31:15.779Z,1.50
2019-06-08T11:33:48.825Z,1.90
2019-06-08T11:36:21.013Z,2.12
2019-06-08T11:38:54.191Z,2.00
2019-06-08T11:41:27.906Z,2.58
2019-06-08T11:44:01.990Z,2.37
2019-06-08T11:46:38.111Z,1.85
2019-06-08T11:49:13.471Z,2.02
2019-06-08T11:51:47.703Z,2.12
2019-06-08T11:54:33.158Z,1.98
2019-06-08T11:56:57.412Z,1.95
2019-06-08T11:59:30.041Z,1.95
2019-06-08T12:02:03.552Z,2.05
2019-06-08T12:04:38.418Z,2.02
2019-06-08T12:07:13.929Z,2.12
2019-06-08T12:09:49.930Z,1.65
2019-06-08T12:12:21.805Z,1.65
2019-06-08T12:14:55.122Z,1.80
2019-06-08T12:17:28.410Z,2.35
2019-06-08T12:20:03.365Z,2.10
2019-06-08T12:22:37.680Z,1.85
2019-06-08T12:25:12.230Z,2.00
2019-06-08T12:27:45.295Z,1.82
2019-06-08T12:30:25.594Z,2.10
2019-06-08T12:32:52.808Z,2.47
2019-06-08T12:35:28.253Z,2.25
2019-06-08T12:38:01.157Z,1.70
2019-06-08T12:40:34.349Z,1.70
2019-06-08T12:43:09.972Z,1.40
2019-06-08T12:45:42.288Z,1.40
2019-06-08T12:48:18.407Z,1.87
2019-06-08T12:50:50.203Z,1.80
2019-06-08T12:53:23.397Z,1.60
2019-06-08T12:55:57.894Z,1.40
2019-06-08T12:58:31.116Z,1.52
2019-06-08T13:01:04.308Z,1.65
2019-06-08T13:03:37.843Z,1.90
2019-06-08T13:06:12.496Z,1.70
2019-06-08T13:08:47.763Z,1.65
2019-06-08T13:11:21.561Z,1.67
2019-06-08T13:13:54.922Z,1.90
2019-06-08T13:16:28.471Z,1.32
2019-06-08T13:19:01.520Z,1.57
2019-06-08T13:21:35.747Z,1.80
2019-06-08T13:24:10.189Z,1.50
2019-06-08T13:26:43.815Z,1.12
2019-06-08T13:29:19.803Z,1.90
2019-06-08T13:31:51.358Z,1.60
2019-06-08T13:34:24.769Z,1.60
2019-06-08T13:36:57.763Z,1.50
2019-06-08T13:39:31.231Z,1.42
2019-06-08T13:42:04.316Z,1.30
2019-06-08T13:44:37.829Z,1.20
2019-06-08T13:47:12.567Z,1.50
2019-06-08T13:49:47.985Z,1.20
2019-06-08T13:52:23.603Z,1.35
2019-06-08T13:54:58.203Z,1.90
2019-06-08T13:57:30.656Z,1.72
2019-06-08T14:00:08.021Z,1.45
2019-06-08T14:02:41.342Z,2.22
2019-06-08T14:05:25.705Z,1.22
2019-06-08T14:07:54.718Z,1.60
2019-06-08T14:10:38.564Z,1.67
2019-06-08T14:13:11.944Z,1.95
2019-06-08T14:15:45.554Z,2.00
2019-06-08T14:18:23.350Z,2.20
2019-06-08T14:20:54.612Z,1.50
2019-06-08T14:23:27.796Z,2.00
2019-06-08T14:26:01.066Z,1.50
2019-06-08T14:28:34.376Z,1.70
2019-06-08T14:31:10.934Z,2.70
2019-06-08T14:33:43.261Z,1.80
2019-06-08T14:36:19.724Z,1.70
2019-06-08T14:38:51.168Z,1.80
2019-06-08T14:41:24.624Z,1.72
2019-06-08T14:43:58.570Z,1.80
2019-06-08T14:46:31.501Z,1.75
2019-06-08T14:49:04.989Z,1.60
2019-06-08T14:51:50.778Z,1.85
2019-06-08T14:54:27.217Z,1.35
2019-06-08T14:56:58.610Z,1.70
2019-06-08T14:59:31.869Z,1.50
2019-06-08T15:02:07.468Z,2.08
2019-06-08T15:04:40.125Z,4.00
2019-06-08T15:07:13.207Z,5.35
2019-06-08T15:09:47.994Z,5.00
2019-06-08T15:12:21.461Z,4.58
2019-06-08T15:14:58.043Z,2.50
2019-06-08T15:17:32.172Z,2.77
2019-06-08T15:20:08.855Z,2.60
2019-06-08T15:22:42.963Z,2.62
2019-06-08T15:25:18.386Z,2.55
2019-06-08T15:27:50.760Z,2.40
2019-06-08T15:30:25.118Z,2.05
2019-06-08T15:33:00.728Z,2.47
2019-06-08T15:35:33.921Z,2.10
2019-06-08T15:38:08.456Z,2.60
2019-06-08T15:40:41.543Z,2.33
2019-06-08T15:43:14.830Z,2.45
2019-06-08T15:45:51.204Z,2.60
2019-06-08T15:48:22.764Z,2.70
2019-06-08T15:50:58.459Z,2.17
2019-06-08T15:53:32.385Z,2.47
2019-06-08T15:56:05.226Z,2.05
2019-06-08T15:58:40.503Z,2.27
2019-06-08T16:01:14.798Z,1.90
2019-06-08T16:03:47.946Z,2.70
2019-06-08T16:06:21.143Z,1.98
2019-06-08T16:08:54.432Z,2.80
2019-06-08T16:11:28.201Z,2.70
2019-06-08T16:14:01.122Z,2.62
2019-06-08T16:16:35.225Z,2.35
2019-06-08T16:19:08.359Z,2.45
2019-06-08T16:21:43.194Z,2.65
2019-06-08T16:24:16.589Z,2.15
2019-06-08T16:26:53.500Z,2.00
2019-06-08T16:29:25.204Z,2.17
2019-06-08T16:31:58.467Z,2.27
2019-06-08T16:34:31.765Z,2.87
2019-06-08T16:37:05.269Z,2.52
2019-06-08T16:39:39.885Z,2.40
2019-06-08T16:42:12.978Z,2.80
2019-06-08T16:44:46.073Z,2.85
2019-06-08T16:47:19.384Z,3.33
2019-06-08T16:49:52.265Z,4.08
2019-06-08T16:52:25.152Z,3.40
2019-06-08T16:54:58.419Z,2.30
2019-06-08T16:57:36.051Z,2.75
2019-06-08T17:02:42.848Z,3.40
2019-06-08T17:05:16.051Z,3.65
2019-06-08T17:07:49.137Z,3.50
2019-06-08T17:10:22.367Z,3.22
2019-06-08T17:12:55.909Z,3.50
2019-06-08T17:15:30.172Z,3.08
2019-06-08T17:18:03.245Z,3.15
2019-06-08T17:20:36.402Z,3.37
2019-06-08T17:23:09.793Z,3.87
2019-06-08T17:25:42.804Z,3.40
2019-06-08T17:28:15.994Z,3.58
2019-06-08T17:30:49.192Z,3.40
2019-06-08T17:33:22.494Z,3.25
2019-06-08T17:35:55.456Z,3.45
2019-06-08T17:38:28.894Z,4.53
2019-06-08T17:41:01.974Z,3.52
2019-06-08T17:43:36.085Z,4.17
2019-06-08T17:46:09.172Z,4.92
2019-06-08T17:48:45.232Z,4.95
2019-06-08T17:51:18.703Z,4.58
2019-06-08T17:53:52.105Z,4.33
2019-06-08T17:56:25.030Z,4.20
2019-06-08T17:58:58.115Z,4.00
2019-06-08T18:01:31.411Z,3.55
2019-06-08T18:04:04.600Z,4.00
2019-06-08T18:06:39.857Z,4.00
2019-06-08T18:09:13.062Z,4.15
2019-06-08T18:11:48.029Z,4.40
2019-06-08T18:14:21.106Z,4.78
2019-06-08T18:16:54.369Z,5.10
2019-06-08T18:19:30.229Z,5.22
2019-06-08T18:22:06.183Z,5.10
2019-06-08T18:24:40.901Z,5.10
2019-06-08T18:27:13.001Z,5.62
2019-06-08T18:29:48.658Z,5.37
2019-06-08T18:32:22.084Z,5.72
2019-06-08T18:34:57.134Z,5.35
2019-06-08T18:37:29.904Z,4.75
2019-06-08T18:40:04.245Z,5.60
2019-06-08T18:42:39.575Z,4.03
2019-06-08T18:45:12.039Z,5.05
2019-06-08T18:47:45.514Z,5.30
2019-06-08T18:50:18.927Z,5.62
2019-06-08T18:52:52.231Z,5.17
2019-06-08T18:55:27.526Z,5.65
2019-06-08T18:57:59.747Z,5.28
2019-06-08T19:00:40.033Z,6.10
2019-06-08T19:03:12.482Z,5.90
2019-06-08T19:05:49.788Z,5.10
2019-06-08T19:08:20.709Z,4.17
2019-06-08T19:10:53.727Z,4.62
2019-06-08T19:13:27.195Z,3.62
2019-06-08T19:16:00.207Z,4.40
2019-06-08T19:18:33.195Z,3.75
2019-06-08T19:21:08.030Z,3.50
2019-06-08T19:23:43.294Z,2.77
2019-06-08T19:26:17.196Z,3.42
2019-06-08T19:28:53.901Z,3.60
2019-06-08T19:31:27.493Z,3.50
2019-06-08T19:34:00.440Z,4.15
2019-06-08T19:36:35.178Z,3.85
2019-06-08T19:39:09.189Z,3.83
2019-06-08T19:41:42.567Z,3.12
2019-06-08T19:44:15.559Z,3.47
2019-06-08T19:46:52.326Z,3.70
2019-06-08T19:49:23.064Z,5.40
2019-06-08T19:51:59.452Z,4.10
2019-06-08T19:54:32.644Z,4.67
2019-06-08T19:57:07.811Z,5.47
2019-06-08T19:59:41.369Z,6.08
2019-06-08T20:02:14.574Z,4.40
2019-06-08T20:04:48.917Z,4.92
2019-06-08T20:07:22.090Z,5.03
2019-06-08T20:09:57.105Z,4.67
2019-06-08T20:12:33.713Z,5.00
2019-06-08T20:15:08.515Z,4.58
2019-06-08T20:17:41.770Z,4.62
2019-06-08T20:20:15.045Z,4.53
2019-06-08T20:22:50.452Z,4.30
2019-06-08T20:25:23.271Z,3.62
2019-06-08T20:27:58.725Z,3.85
2019-06-08T20:30:31.244Z,3.90
2019-06-08T20:33:04.277Z,3.90
2019-06-08T20:35:37.711Z,3.50
2019-06-08T20:38:10.871Z,4.03
2019-06-08T20:40:44.013Z,3.62
2019-06-08T20:43:17.743Z,4.28
2019-06-08T20:45:52.203Z,4.10
2019-06-08T20:48:27.500Z,3.90
2019-06-08T20:51:00.648Z,4.00
2019-06-08T20:53:33.527Z,3.80
2019-06-08T20:56:08.061Z,3.62
2019-06-08T20:58:41.141Z,3.70
2019-06-08T21:01:14.131Z,3.37
2019-06-08T21:03:48.588Z,4.05
2019-06-08T21:06:22.455Z,3.77
2019-06-08T21:08:57.608Z,3.58
2019-06-08T21:11:30.591Z,3.77
2019-06-08T21:14:03.875Z,4.00
2019-06-08T21:16:38.332Z,3.87
2019-06-08T21:19:11.283Z,3.87
2019-06-08T21:21:45.613Z,4.37
2019-06-08T21:24:19.025Z,4.45
2019-06-08T21:26:55.190Z,4.58
2019-06-08T21:29:34.205Z,4.17
2019-06-08T21:32:03.117Z,4.55
2019-06-08T21:34:38.085Z,4.17
2019-06-08T21:37:11.345Z,5.58
2019-06-08T21:39:44.321Z,4.80
2019-06-08T21:42:17.630Z,4.85
2019-06-08T21:44:53.110Z,7.25
2019-06-08T21:47:27.186Z,6.35
2019-06-08T21:50:00.539Z,7.58
2019-06-08T21:52:35.314Z,9.10
2019-06-08T21:55:08.714Z,9.83
2019-06-08T21:57:41.918Z,9.78
2019-06-08T22:00:38.155Z,9.28
2019-06-08T22:02:51.782Z,10.00
2019-06-08T22:05:27.120Z,8.43
2019-06-08T22:08:00.512Z,9.15
2019-06-08T22:10:33.578Z,8.38
2019-06-08T22:13:08.652Z,6.50
2019-06-08T22:15:41.904Z,8.63
2019-06-08T22:18:15.156Z,7.65
2019-06-08T22:20:48.333Z,8.10
2019-06-08T22:23:21.378Z,7.62
2019-06-08T22:25:59.226Z,6.60
2019-06-08T22:28:32.538Z,7.37
2019-06-08T22:31:07.881Z,6.95
2019-06-08T22:33:40.376Z,7.92
2019-06-08T22:36:15.020Z,8.73
2019-06-08T22:38:48.290Z,8.83
2019-06-08T22:41:21.368Z,9.20
2019-06-08T22:43:55.705Z,9.85
2019-06-08T22:46:28.888Z,8.90
2019-06-08T22:49:03.691Z,8.98
2019-06-08T22:51:38.339Z,8.28
2019-06-08T22:54:13.785Z,9.15
2019-06-08T22:56:47.812Z,8.88
2019-06-08T22:59:20.737Z,9.28
2019-06-08T23:01:55.937Z,8.83
2019-06-08T23:04:29.326Z,10.08
2019-06-08T23:07:04.540Z,11.55
2019-06-08T23:09:37.389Z,12.98
2019-06-08T23:12:10.424Z,12.10
2019-06-08T23:14:43.674Z,12.13
2019-06-08T23:17:17.866Z,16.25
2019-06-08T23:19:51.229Z,20.25
2019-06-08T23:22:24.239Z,24.65
2019-06-08T23:24:59.380Z,20.95
2019-06-08T23:27:32.033Z,19.55
2019-06-08T23:30:09.655Z,21.25
2019-06-08T23:32:40.508Z,16.40
2019-06-08T23:35:13.875Z,15.78
2019-06-08T23:37:47.804Z,20.77
2019-06-08T23:40:21.090Z,19.42
2019-06-08T23:42:54.186Z,13.65
2019-06-08T23:45:27.323Z,10.80
2019-06-08T23:48:01.161Z,7.80
2019-06-08T23:50:34.514Z,4.00
2019-06-08T23:53:10.583Z,3.58
2019-06-08T23:55:43.430Z,4.17
2019-06-08T23:58:17.480Z,4.03
